Time;durP1;ratioP1;P1;durP2;ratioP2;P2;SDS_P1;SDS_P2;PMS_P1;PMS_P2;Temp;Humidity;BMP_temperature;BMP_pressure;BME280_temperature;BME280_humidity;BME280_pressure;Samples;Min_cycle;Max_cycle;Signal;HPM_P1;HPM_P2
2022/09/14 00:00:57;;;;;;;3.38;2.03;;;;;;;;;;5110956;28;20035;-75
2022/09/14 00:03:23;;;;;;;3.42;2.25;;;;;;;;;;5111392;28;20026;-75
2022/09/14 00:05:49;;;;;;;3.55;2.10;;;;;;;;;;5110972;28;20020;-75
2022/09/14 00:09:34;;;;;;;3.90;2.25;;;;;;;;;;5111459;27;20400;-75
2022/09/14 00:13:38;;;;;;;3.63;2.20;;;;;;;;;;5111180;27;20573;-74
2022/09/14 00:16:06;;;;;;;4.72;2.17;;;;;;;;;;5110095;28;20026;-74
2022/09/14 00:18:33;;;;;;;4.55;2.05;;;;;;;;;;5111371;28;20460;-75
2022/09/14 00:23:27;;;;;;;3.40;2.20;;;;;;;;;;5111851;27;20389;-74
2022/09/14 00:25:53;;;;;;;5.18;2.40;;;;;;;;;;5111602;28;20024;-74
2022/09/14 00:28:19;;;;;;;4.03;2.13;;;;;;;;;;5111078;28;20106;-75
2022/09/14 00:30:46;;;;;;;4.35;2.30;;;;;;;;;;5111286;28;20024;-75
2022/09/14 00:33:12;;;;;;;4.00;2.33;;;;;;;;;;5111246;28;20019;-76
2022/09/14 00:37:05;;;;;;;4.18;2.25;;;;;;;;;;5111920;27;20381;-75
2022/09/14 00:39:31;;;;;;;6.25;2.20;;;;;;;;;;5111519;28;20504;-75
2022/09/14 00:42:56;;;;;;;3.45;2.00;;;;;;;;;;5111091;27;20392;-75
2022/09/14 00:46:06;;;;;;;4.28;2.08;;;;;;;;;;5112136;27;20450;-75
2022/09/14 00:49:40;;;;;;;5.18;2.28;;;;;;;;;;5112967;27;20423;-74
2022/09/14 00:52:07;;;;;;;3.78;2.25;;;;;;;;;;5122319;28;20110;-74
2022/09/14 00:54:54;;;;;;;3.40;2.10;;;;;;;;;;5120398;28;20027;-74
2022/09/14 00:57:20;;;;;;;4.53;2.15;;;;;;;;;;5114169;28;20020;-74
2022/09/14 00:59:49;;;;;;;3.55;1.95;;;;;;;;;;5111667;28;20023;-74
2022/09/14 01:02:28;;;;;;;4.18;2.30;;;;;;;;;;5111593;27;20384;-74
2022/09/14 01:04:54;;;;;;;5.13;2.65;;;;;;;;;;5127213;28;20028;-75
2022/09/14 01:07:24;;;;;;;5.60;2.38;;;;;;;;;;5112004;28;20020;-76
2022/09/14 01:11:07;;;;;;;5.13;2.45;;;;;;;;;;5131634;27;20116;-75
2022/09/14 01:13:39;;;;;;;3.30;2.25;;;;;;;;;;5132100;28;20027;-75
2022/09/14 01:20:04;;;;;;;3.72;2.28;;;;;;;;;;5112085;27;20442;-76
2022/09/14 01:22:57;;;;;;;3.83;2.40;;;;;;;;;;5111491;28;20019;-76
2022/09/14 01:27:54;;;;;;;5.32;2.45;;;;;;;;;;5111900;27;20449;-75
2022/09/14 01:30:22;;;;;;;4.50;2.40;;;;;;;;;;5111046;28;20048;-75
2022/09/14 01:33:13;;;;;;;3.33;2.38;;;;;;;;;;5109996;28;20024;-75
2022/09/14 01:35:54;;;;;;;5.90;2.60;;;;;;;;;;5110127;28;20016;-76
2022/09/14 01:39:19;;;;;;;4.47;2.50;;;;;;;;;;5111273;27;20454;-76
2022/09/14 01:41:46;;;;;;;3.40;2.30;;;;;;;;;;5110176;28;20213;-75
2022/09/14 01:44:17;;;;;;;5.88;2.88;;;;;;;;;;5111350;28;20028;-75
2022/09/14 01:46:46;;;;;;;4.50;2.58;;;;;;;;;;5111621;28;20028;-75
2022/09/14 01:49:15;;;;;;;6.03;2.97;;;;;;;;;;5111293;28;20012;-75
2022/09/14 01:52:04;;;;;;;5.32;3.20;;;;;;;;;;5110730;28;20023;-74
2022/09/14 01:54:34;;;;;;;4.82;2.78;;;;;;;;;;5111197;28;20027;-74
2022/09/14 01:57:06;;;;;;;7.45;3.83;;;;;;;;;;5109750;28;20059;-74
2022/09/14 01:59:37;;;;;;;5.90;3.15;;;;;;;;;;5110930;28;20035;-74
2022/09/14 02:02:11;;;;;;;5.20;2.92;;;;;;;;;;5111199;28;20019;-75
2022/09/14 02:04:44;;;;;;;5.47;2.60;;;;;;;;;;5110915;28;20031;-75
2022/09/14 02:07:11;;;;;;;5.63;2.90;;;;;;;;;;5110689;28;20080;-75
2022/09/14 02:09:37;;;;;;;3.53;2.25;;;;;;;;;;5110893;28;20020;-74
2022/09/14 02:12:03;;;;;;;5.07;2.83;;;;;;;;;;5110926;28;20024;-75
2022/09/14 02:14:30;;;;;;;4.53;2.72;;;;;;;;;;5109144;28;20495;-75
2022/09/14 02:16:56;;;;;;;9.32;3.15;;;;;;;;;;5110622;28;20046;-74
2022/09/14 02:19:24;;;;;;;5.80;3.53;;;;;;;;;;5110750;28;20047;-75
2022/09/14 02:21:50;;;;;;;5.18;2.40;;;;;;;;;;5110539;28;20020;-74
2022/09/14 02:24:17;;;;;;;4.80;2.60;;;;;;;;;;5110747;28;20024;-74
2022/09/14 02:26:43;;;;;;;6.68;2.50;;;;;;;;;;5108901;28;20499;-75
2022/09/14 02:29:09;;;;;;;5.07;2.67;;;;;;;;;;5110699;28;20020;-75
2022/09/14 02:31:44;;;;;;;6.28;2.60;;;;;;;;;;5110468;28;20032;-75
2022/09/14 02:34:24;;;;;;;4.78;2.75;;;;;;;;;;5109988;28;20019;-76
2022/09/14 02:37:09;;;;;;;4.70;3.05;;;;;;;;;;5110232;28;20023;-73
2022/09/14 02:39:40;;;;;;;4.95;3.00;;;;;;;;;;5110421;28;20027;-75
2022/09/14 02:42:12;;;;;;;4.63;2.67;;;;;;;;;;5109936;28;20043;-76
2022/09/14 02:44:53;;;;;;;6.70;2.65;;;;;;;;;;5110425;28;20123;-76
2022/09/14 02:47:38;;;;;;;3.55;2.22;;;;;;;;;;5108872;28;20472;-76
2022/09/14 02:50:22;;;;;;;4.45;2.70;;;;;;;;;;5100161;28;20032;-75
2022/09/14 02:52:57;;;;;;;5.00;2.83;;;;;;;;;;5096756;28;20028;-75
2022/09/14 02:55:25;;;;;;;6.38;3.05;;;;;;;;;;5096158;28;20027;-75
2022/09/14 02:58:01;;;;;;;5.03;2.90;;;;;;;;;;5095017;28;20122;-75
2022/09/14 03:00:29;;;;;;;5.85;3.38;;;;;;;;;;5096415;28;20024;-75
2022/09/14 03:02:55;;;;;;;8.50;3.42;;;;;;;;;;5095836;28;20024;-75
2022/09/14 03:05:21;;;;;;;5.88;3.00;;;;;;;;;;5096837;28;20062;-76
2022/09/14 03:07:47;;;;;;;5.32;3.13;;;;;;;;;;5096127;28;20097;-76
2022/09/14 03:10:13;;;;;;;4.80;2.92;;;;;;;;;;5094471;28;20103;-75
2022/09/14 03:12:40;;;;;;;5.65;3.10;;;;;;;;;;5096224;28;20028;-76
2022/09/14 03:15:06;;;;;;;4.97;3.03;;;;;;;;;;5096093;28;20020;-76
2022/09/14 03:17:33;;;;;;;5.70;2.78;;;;;;;;;;5095754;28;20028;-76
2022/09/14 03:19:59;;;;;;;5.35;3.00;;;;;;;;;;5096179;28;20426;-76
2022/09/14 03:22:25;;;;;;;5.45;2.97;;;;;;;;;;5095924;28;20077;-75
2022/09/14 03:24:51;;;;;;;5.72;3.05;;;;;;;;;;5095564;28;20024;-75
2022/09/14 03:27:17;;;;;;;4.90;2.75;;;;;;;;;;5095928;28;20055;-76
2022/09/14 03:29:43;;;;;;;4.95;2.78;;;;;;;;;;5095676;28;20103;-75
2022/09/14 03:32:11;;;;;;;4.55;2.60;;;;;;;;;;5095767;28;20043;-75
2022/09/14 03:34:37;;;;;;;5.78;2.95;;;;;;;;;;5096205;28;20020;-76
2022/09/14 03:37:03;;;;;;;7.55;3.03;;;;;;;;;;5095067;28;20020;-75
2022/09/14 03:39:29;;;;;;;8.88;3.00;;;;;;;;;;5096000;28;20028;-76
2022/09/14 03:41:55;;;;;;;5.68;3.05;;;;;;;;;;5094277;28;20501;-76
2022/09/14 03:44:21;;;;;;;6.53;3.03;;;;;;;;;;5095272;28;20036;-76
2022/09/14 03:46:47;;;;;;;12.35;3.60;;;;;;;;;;5095870;28;20031;-78
2022/09/14 03:49:13;;;;;;;7.13;3.40;;;;;;;;;;5095428;28;20468;-78
2022/09/14 03:51:40;;;;;;;5.80;3.13;;;;;;;;;;5095069;28;20556;-77
2022/09/14 03:54:06;;;;;;;7.55;3.13;;;;;;;;;;5095580;28;20096;-77
2022/09/14 03:56:32;;;;;;;5.15;2.72;;;;;;;;;;5095452;28;20048;-77
2022/09/14 03:58:58;;;;;;;6.75;3.20;;;;;;;;;;5094760;28;20032;-77
2022/09/14 04:01:24;;;;;;;7.35;3.35;;;;;;;;;;5094125;28;20020;-77
2022/09/14 04:03:50;;;;;;;7.65;4.22;;;;;;;;;;5093754;28;20477;-77
2022/09/14 04:06:17;;;;;;;7.40;4.53;;;;;;;;;;5094671;28;20384;-77
2022/09/14 04:08:44;;;;;;;8.95;5.50;;;;;;;;;;5095112;28;20024;-77
2022/09/14 04:11:13;;;;;;;9.85;4.43;;;;;;;;;;5094962;28;20049;-76
2022/09/14 04:13:39;;;;;;;7.47;4.32;;;;;;;;;;5094657;28;20051;-76
2022/09/14 04:16:05;;;;;;;6.95;4.25;;;;;;;;;;5094842;28;20055;-76
2022/09/14 04:18:31;;;;;;;5.72;3.55;;;;;;;;;;5094772;28;20086;-77
2022/09/14 04:21:02;;;;;;;7.18;3.75;;;;;;;;;;5093047;28;20122;-77
2022/09/14 04:23:28;;;;;;;8.77;3.95;;;;;;;;;;5095177;28;20472;-76
2022/09/14 04:25:54;;;;;;;6.57;4.03;;;;;;;;;;5094723;28;20024;-76
2022/09/14 04:28:21;;;;;;;7.88;4.22;;;;;;;;;;5094207;28;20380;-77
2022/09/14 04:31:00;;;;;;;6.28;3.60;;;;;;;;;;5094561;28;20047;-76
2022/09/14 04:33:29;;;;;;;8.25;3.53;;;;;;;;;;5094151;28;20027;-76
2022/09/14 04:35:57;;;;;;;5.68;3.25;;;;;;;;;;5093381;28;20023;-77
2022/09/14 04:38:23;;;;;;;5.00;3.15;;;;;;;;;;5094405;28;20044;-77
2022/09/14 04:40:49;;;;;;;9.77;3.90;;;;;;;;;;5094170;28;20020;-77
2022/09/14 04:43:15;;;;;;;10.90;4.47;;;;;;;;;;5093094;28;20035;-77
2022/09/14 04:45:41;;;;;;;10.80;4.22;;;;;;;;;;5092981;28;20028;-77
2022/09/14 04:48:07;;;;;;;7.85;2.92;;;;;;;;;;5093875;28;20077;-77
2022/09/14 04:50:33;;;;;;;6.07;2.95;;;;;;;;;;5093031;28;20032;-77
2022/09/14 04:52:59;;;;;;;6.70;3.47;;;;;;;;;;5094086;28;20046;-76
2022/09/14 04:55:26;;;;;;;5.65;3.47;;;;;;;;;;5093675;28;20016;-76
2022/09/14 04:57:52;;;;;;;8.23;3.58;;;;;;;;;;5093960;28;20023;-76
2022/09/14 05:00:18;;;;;;;8.38;3.65;;;;;;;;;;5093978;28;20046;-76
2022/09/14 05:02:45;;;;;;;6.95;3.05;;;;;;;;;;5093649;28;20021;-76
2022/09/14 05:05:11;;;;;;;5.28;2.72;;;;;;;;;;5093902;28;20024;-76
2022/09/14 05:07:37;;;;;;;5.65;2.75;;;;;;;;;;5093769;28;20031;-76
2022/09/14 05:10:04;;;;;;;4.70;2.58;;;;;;;;;;5093516;28;20111;-76
2022/09/14 05:12:30;;;;;;;6.10;3.35;;;;;;;;;;5093458;28;20023;-77
2022/09/14 05:14:56;;;;;;;6.68;3.85;;;;;;;;;;5091214;28;20023;-78
2022/09/14 05:17:22;;;;;;;6.53;2.97;;;;;;;;;;5092602;28;20035;-81
2022/09/14 05:19:49;;;;;;;6.30;3.17;;;;;;;;;;5073669;28;20563;-76
2022/09/14 05:22:15;;;;;;;5.60;3.35;;;;;;;;;;5072611;28;20028;-78
2022/09/14 05:24:41;;;;;;;6.40;3.60;;;;;;;;;;5072932;28;20476;-78
2022/09/14 05:27:07;;;;;;;7.40;3.25;;;;;;;;;;5087491;28;20028;-81
2022/09/14 05:29:33;;;;;;;6.78;4.00;;;;;;;;;;5092800;28;20024;-79
2022/09/14 05:32:00;;;;;;;7.75;3.90;;;;;;;;;;5093096;28;20064;-76
2022/09/14 05:34:26;;;;;;;6.82;3.50;;;;;;;;;;5093179;28;20032;-79
2022/09/14 05:36:52;;;;;;;8.07;3.63;;;;;;;;;;5089571;28;20085;-77
2022/09/14 05:39:18;;;;;;;7.63;3.63;;;;;;;;;;5090771;28;20080;-76
2022/09/14 05:41:44;;;;;;;4.80;3.10;;;;;;;;;;5091576;28;20031;-79
2022/09/14 05:44:11;;;;;;;7.10;3.95;;;;;;;;;;5092602;28;20474;-78
2022/09/14 05:46:37;;;;;;;6.57;3.75;;;;;;;;;;5092286;28;20032;-78
2022/09/14 05:49:03;;;;;;;6.05;3.47;;;;;;;;;;5092819;28;20035;-76
2022/09/14 05:53:13;;;;;;;7.15;3.58;;;;;;;;;;5110864;27;20306;-77
2022/09/14 05:55:39;;;;;;;9.90;3.45;;;;;;;;;;5110732;28;20541;-80
2022/09/14 05:58:05;;;;;;;5.95;3.63;;;;;;;;;;5110546;28;20020;-77
2022/09/14 06:02:01;;;;;;;5.65;2.92;;;;;;;;;;5110887;27;20400;-78
2022/09/14 06:04:28;;;;;;;6.55;3.35;;;;;;;;;;5108788;28;20031;-78
2022/09/14 06:09:43;;;;;;;6.25;3.40;;;;;;;;;;5110595;27;20392;-79
2022/09/14 06:12:09;;;;;;;8.48;3.75;;;;;;;;;;5110418;28;20058;-79
2022/09/14 06:14:35;;;;;;;7.15;3.67;;;;;;;;;;5110564;28;20024;-80
2022/09/14 06:19:06;;;;;;;10.05;4.18;;;;;;;;;;5110471;27;20426;-78
2022/09/14 06:22:14;;;;;;;9.27;3.97;;;;;;;;;;5070736;28;20445;-78
2022/09/14 06:24:40;;;;;;;8.48;4.15;;;;;;;;;;5070234;28;20067;-81
2022/09/14 06:27:09;;;;;;;7.53;4.22;;;;;;;;;;5069804;28;20595;-79
2022/09/14 06:33:44;;;;;;;6.93;3.35;;;;;;;;;;5109945;27;20393;-77
2022/09/14 06:36:12;;;;;;;6.97;4.00;;;;;;;;;;5108799;28;20030;-75
2022/09/14 06:40:04;;;;;;;8.88;4.38;;;;;;;;;;5108879;27;20969;-79
2022/09/14 06:42:30;;;;;;;7.65;4.10;;;;;;;;;;5110139;28;20384;-78
2022/09/14 06:44:57;;;;;;;6.68;3.65;;;;;;;;;;5110086;28;20085;-79
2022/09/14 06:47:23;;;;;;;8.85;4.55;;;;;;;;;;5109860;28;20099;-80
2022/09/14 06:49:49;;;;;;;6.50;3.75;;;;;;;;;;5110185;28;20031;-79
2022/09/14 06:52:16;;;;;;;7.05;3.53;;;;;;;;;;5110888;28;20321;-79
2022/09/14 06:54:42;;;;;;;8.35;3.83;;;;;;;;;;5110432;28;20088;-79
2022/09/14 06:58:38;;;;;;;7.38;3.97;;;;;;;;;;5110861;27;20473;-82
2022/09/14 07:01:05;;;;;;;8.13;4.18;;;;;;;;;;5110557;28;20027;-81
2022/09/14 07:03:57;;;;;;;8.73;4.18;;;;;;;;;;5070186;28;20399;-80
2022/09/14 07:06:26;;;;;;;9.32;5.70;;;;;;;;;;5068502;28;20041;-79
2022/09/14 07:13:47;;;;;;;5.45;3.20;;;;;;;;;;5105550;27;20384;-76
2022/09/14 07:16:13;;;;;;;5.40;3.00;;;;;;;;;;5106465;28;20042;-73
2022/09/14 07:19:02;;;;;;;8.23;3.70;;;;;;;;;;5106877;27;20405;-72
2022/09/14 07:21:29;;;;;;;7.88;3.80;;;;;;;;;;5108533;28;20422;-72
2022/09/14 07:23:56;;;;;;;6.03;3.15;;;;;;;;;;5108225;28;20020;-72
2022/09/14 07:26:23;;;;;;;7.15;3.92;;;;;;;;;;5107084;28;20123;-70
2022/09/14 07:28:53;;;;;;;5.78;3.30;;;;;;;;;;5108506;28;20028;-71
2022/09/14 07:31:21;;;;;;;6.03;2.67;;;;;;;;;;5109271;28;20015;-72
2022/09/14 07:38:40;;;;;;;6.57;3.40;;;;;;;;;;5070011;28;20449;-69
2022/09/14 07:42:51;;;;;;;6.75;3.33;;;;;;;;;;5070229;28;20477;-71
2022/09/14 07:45:41;;;;;;;7.75;3.10;;;;;;;;;;5110079;27;20686;-68
2022/09/14 07:48:07;;;;;;;5.40;2.92;;;;;;;;;;5108135;28;20035;-69
2022/09/14 07:50:34;;;;;;;6.45;3.00;;;;;;;;;;5106845;28;20484;-69
2022/09/14 07:55:42;;;;;;;5.50;3.17;;;;;;;;;;5069681;28;21000;-69
2022/09/14 07:58:08;;;;;;;5.38;2.88;;;;;;;;;;5067836;28;20029;-69
2022/09/14 08:00:34;;;;;;;7.30;3.58;;;;;;;;;;5067963;28;20028;-69
2022/09/14 08:03:00;;;;;;;5.30;2.92;;;;;;;;;;5063854;28;20517;-70
2022/09/14 08:05:26;;;;;;;10.18;2.72;;;;;;;;;;5066646;28;20056;-70
2022/09/14 08:07:54;;;;;;;3.75;2.35;;;;;;;;;;5058960;28;20021;-69
2022/09/14 08:11:21;;;;;;;7.07;2.95;;;;;;;;;;5127592;27;20391;-70
2022/09/14 08:21:24;;;;;;;5.65;2.30;;;;;;;;;;5107792;27;20465;-69
2022/09/14 08:26:27;;;;;;;4.72;2.28;;;;;;;;;;5087266;27;20432;-71
2022/09/14 08:30:02;;;;;;;5.75;2.92;;;;;;;;;;5108460;27;20509;-68
2022/09/14 08:32:28;;;;;;;3.80;2.10;;;;;;;;;;5107886;28;20392;-69
2022/09/14 08:34:54;;;;;;;4.93;2.22;;;;;;;;;;5108015;28;20441;-69
2022/09/14 08:37:20;;;;;;;3.88;2.42;;;;;;;;;;5106177;28;20472;-69
2022/09/14 08:40:23;;;;;;;4.78;2.10;;;;;;;;;;5108369;27;20423;-69
2022/09/14 08:44:25;;;;;;;3.38;1.92;;;;;;;;;;5110208;27;20384;-69
2022/09/14 08:46:55;;;;;;;4.97;2.17;;;;;;;;;;5109690;28;20027;-70
2022/09/14 08:49:29;;;;;;;3.65;1.90;;;;;;;;;;5107750;28;20088;-70
2022/09/14 08:51:55;;;;;;;4.30;2.55;;;;;;;;;;5108383;28;20020;-70
2022/09/14 08:54:22;;;;;;;3.90;2.17;;;;;;;;;;5107973;28;20166;-70
2022/09/14 08:57:59;;;;;;;3.97;1.88;;;;;;;;;;5067631;28;20465;-71
2022/09/14 09:00:30;;;;;;;3.65;2.20;;;;;;;;;;5068080;28;20040;-78
2022/09/14 09:04:01;;;;;;;4.18;2.13;;;;;;;;;;5107914;27;20393;-77
2022/09/14 09:11:15;;;;;;;4.13;2.35;;;;;;;;;;5111071;27;20446;-77
2022/09/14 09:13:42;;;;;;;5.32;2.60;;;;;;;;;;5111170;28;20124;-78
2022/09/14 09:16:10;;;;;;;3.50;1.50;;;;;;;;;;5109614;28;20024;-78
2022/09/14 09:18:39;;;;;;;3.70;1.70;;;;;;;;;;5111296;28;20107;-79
2022/09/14 09:23:44;;;;;;;2.85;1.42;;;;;;;;;;5070473;28;20387;-77
2022/09/14 09:26:24;;;;;;;3.47;1.90;;;;;;;;;;5069605;28;20021;-78
2022/09/14 09:30:25;;;;;;;3.72;2.08;;;;;;;;;;5108330;27;20804;-81
2022/09/14 09:34:43;;;;;;;3.13;1.73;;;;;;;;;;5108961;27;20422;-78
2022/09/14 09:37:16;;;;;;;3.42;2.03;;;;;;;;;;5107823;28;20474;-78
2022/09/14 09:39:42;;;;;;;4.25;1.55;;;;;;;;;;5107808;28;20077;-78
2022/09/14 09:42:14;;;;;;;4.30;1.73;;;;;;;;;;5123126;28;20111;-78
2022/09/14 09:44:54;;;;;;;4.18;1.73;;;;;;;;;;5107760;28;20081;-79
2022/09/14 09:49:25;;;;;;;3.75;1.60;;;;;;;;;;5109250;27;20119;-78
2022/09/14 09:53:27;;;;;;;3.58;1.98;;;;;;;;;;5069113;28;20719;-77
2022/09/14 09:55:53;;;;;;;6.65;2.25;;;;;;;;;;5068628;28;20029;-79
2022/09/14 09:58:30;;;;;;;3.58;1.50;;;;;;;;;;5066832;28;20052;-78
2022/09/14 10:01:05;;;;;;;2.85;1.50;;;;;;;;;;5066197;28;20051;-78
2022/09/14 10:03:36;;;;;;;4.13;1.88;;;;;;;;;;5068061;28;20013;-76
2022/09/14 10:07:18;;;;;;;3.85;1.58;;;;;;;;;;5108802;27;20400;-77
2022/09/14 10:09:56;;;;;;;4.70;2.50;;;;;;;;;;5108155;28;20031;-78
2022/09/14 10:12:22;;;;;;;4.75;2.05;;;;;;;;;;5108504;28;20026;-78
2022/09/14 10:14:48;;;;;;;2.35;1.27;;;;;;;;;;5110957;28;20024;-75
2022/09/14 10:17:18;;;;;;;2.85;1.73;;;;;;;;;;5111363;28;20096;-79
2022/09/14 10:19:50;;;;;;;4.32;1.85;;;;;;;;;;5105211;28;20024;-78
2022/09/14 10:22:18;;;;;;;4.28;2.00;;;;;;;;;;5109731;28;20077;-76
2022/09/14 10:24:58;;;;;;;2.15;1.15;;;;;;;;;;5116927;28;20031;-79
2022/09/14 10:27:40;;;;;;;2.20;1.23;;;;;;;;;;5121373;28;20460;-79
2022/09/14 10:30:12;;;;;;;3.25;1.40;;;;;;;;;;5116556;28;20164;-78
2022/09/14 10:32:39;;;;;;;2.13;1.43;;;;;;;;;;5118512;28;20028;-79
2022/09/14 10:35:16;;;;;;;2.35;1.60;;;;;;;;;;5118075;28;20019;-78
2022/09/14 10:39:42;;;;;;;4.05;1.60;;;;;;;;;;5121688;27;20124;-77
2022/09/14 10:42:11;;;;;;;4.83;1.50;;;;;;;;;;5086587;28;20594;-78
2022/09/14 10:44:48;;;;;;;7.10;1.90;;;;;;;;;;5109519;28;20264;-79
2022/09/14 10:47:33;;;;;;;4.78;1.85;;;;;;;;;;5110385;28;20499;-78
2022/09/14 10:50:10;;;;;;;1.80;1.30;;;;;;;;;;5110465;28;20024;-77
2022/09/14 10:52:43;;;;;;;2.45;1.67;;;;;;;;;;5110269;28;20034;-77
2022/09/14 10:55:23;;;;;;;3.15;1.50;;;;;;;;;;5110043;28;20116;-79
2022/09/14 10:58:16;;;;;;;2.80;1.40;;;;;;;;;;5110235;28;20030;-78
2022/09/14 11:00:59;;;;;;;5.80;1.70;;;;;;;;;;5091301;28;20031;-77
2022/09/14 11:03:26;;;;;;;;;;;;;;;;;;5092410;28;20024;-77
2022/09/14 11:05:58;;;;;;;3.05;1.35;;;;;;;;;;5110055;28;19904;-76
2022/09/14 11:08:24;;;;;;;;;;;;;;;;;;5109821;28;20484;-77
2022/09/14 11:11:09;;;;;;;2.22;1.25;;;;;;;;;;5109142;28;19946;-77
2022/09/14 11:13:38;;;;;;;5.95;2.08;;;;;;;;;;5109610;28;20233;-77
2022/09/14 11:16:20;;;;;;;3.25;1.90;;;;;;;;;;5108497;28;20031;-78
2022/09/14 11:19:05;;;;;;;1.97;1.37;;;;;;;;;;5107757;28;20036;-78
2022/09/14 11:21:34;;;;;;;1.40;1.10;;;;;;;;;;5093660;28;20485;-78
2022/09/14 11:24:03;;;;;;;1.92;1.15;;;;;;;;;;5089122;28;20021;-77
2022/09/14 11:26:37;;;;;;;2.38;1.30;;;;;;;;;;5071261;28;20028;-76
2022/09/14 11:29:15;;;;;;;2.13;1.30;;;;;;;;;;5089030;28;20024;-78
2022/09/14 11:32:00;;;;;;;3.53;1.17;;;;;;;;;;5089737;28;20548;-78
2022/09/14 11:34:53;;;;;;;2.50;1.40;;;;;;;;;;5089539;28;20362;-76
2022/09/14 11:37:22;;;;;;;3.00;1.67;;;;;;;;;;5050406;28;20048;-76
2022/09/14 11:40:11;;;;;;;1.65;1.23;;;;;;;;;;5068530;28;20016;-76
2022/09/14 11:42:43;;;;;;;2.20;1.27;;;;;;;;;;5062737;28;20051;-75
2022/09/14 11:45:24;;;;;;;5.82;1.42;;;;;;;;;;5068333;28;20116;-76
2022/09/14 11:47:57;;;;;;;4.25;1.35;;;;;;;;;;5068362;28;20078;-76
2022/09/14 11:50:26;;;;;;;3.25;1.48;;;;;;;;;;5057067;28;20533;-75
2022/09/14 11:53:04;;;;;;;3.33;1.30;;;;;;;;;;5055630;28;20032;-75
2022/09/14 11:55:30;;;;;;;2.67;1.23;;;;;;;;;;5054295;28;20021;-75
2022/09/14 11:57:57;;;;;;;2.10;1.38;;;;;;;;;;5054147;28;20088;-73
2022/09/14 12:00:23;;;;;;;2.88;1.50;;;;;;;;;;5052331;28;20473;-72
2022/09/14 12:03:05;;;;;;;3.20;1.35;;;;;;;;;;5053731;28;20108;-73
2022/09/14 12:05:32;;;;;;;11.20;1.70;;;;;;;;;;5053017;28;20082;-71
2022/09/14 12:07:59;;;;;;;2.30;1.20;;;;;;;;;;5053810;28;20100;-72
2022/09/14 12:10:26;;;;;;;2.60;1.65;;;;;;;;;;5052954;28;20031;-73
2022/09/14 12:12:56;;;;;;;2.63;1.40;;;;;;;;;;5051886;28;20025;-71
2022/09/14 12:15:32;;;;;;;1.63;1.20;;;;;;;;;;5052756;28;20057;-72
2022/09/14 12:18:05;;;;;;;4.13;1.63;;;;;;;;;;5051830;28;20409;-71
2022/09/14 12:20:31;;;;;;;4.97;1.40;;;;;;;;;;5053554;28;20067;-73
2022/09/14 12:23:23;;;;;;;3.28;1.50;;;;;;;;;;5053655;28;20021;-72
2022/09/14 12:26:12;;;;;;;2.25;1.20;;;;;;;;;;5038804;28;20044;-72
2022/09/14 12:28:42;;;;;;;2.00;1.08;;;;;;;;;;5049641;28;20120;-72
2022/09/14 12:31:11;;;;;;;1.83;1.10;;;;;;;;;;5054851;28;20469;-72
2022/09/14 12:33:37;;;;;;;3.08;1.23;;;;;;;;;;5054632;28;20029;-72
2022/09/14 12:36:12;;;;;;;1.70;1.10;;;;;;;;;;5065603;28;20028;-77
2022/09/14 12:39:01;;;;;;;2.15;1.20;;;;;;;;;;5067231;28;20052;-76
2022/09/14 12:41:28;;;;;;;3.25;1.35;;;;;;;;;;4999848;28;20072;-75
2022/09/14 12:43:54;;;;;;;1.45;1.20;;;;;;;;;;5036974;28;20029;-76
2022/09/14 12:46:20;;;;;;;16.20;2.58;;;;;;;;;;5054073;28;20156;-77
2022/09/14 12:48:47;;;;;;;2.78;1.35;;;;;;;;;;5033711;28;20032;-77
2022/09/14 12:51:25;;;;;;;4.47;1.42;;;;;;;;;;5051734;28;20013;-76
2022/09/14 12:53:58;;;;;;;1.95;1.00;;;;;;;;;;5049753;28;20021;-76
2022/09/14 12:56:34;;;;;;;1.30;0.80;;;;;;;;;;5049414;28;20373;-76
2022/09/14 12:59:21;;;;;;;1.38;0.90;;;;;;;;;;5049390;28;20115;-75
2022/09/14 13:01:59;;;;;;;13.77;1.48;;;;;;;;;;5049037;28;20025;-76
2022/09/14 13:04:27;;;;;;;1.73;1.02;;;;;;;;;;5050549;28;20060;-76
2022/09/14 13:06:54;;;;;;;1.95;1.00;;;;;;;;;;5052970;28;20448;-76
2022/09/14 13:09:21;;;;;;;1.63;1.10;;;;;;;;;;5054478;28;20025;-77
2022/09/14 13:11:52;;;;;;;3.08;1.40;;;;;;;;;;5054735;28;20048;-78
2022/09/14 13:14:19;;;;;;;2.57;1.00;;;;;;;;;;5054449;28;20031;-76
2022/09/14 13:16:49;;;;;;;1.98;1.13;;;;;;;;;;5036850;28;20033;-76
2022/09/14 13:19:28;;;;;;;2.63;1.30;;;;;;;;;;5054233;28;20037;-75
2022/09/14 13:21:56;;;;;;;1.85;1.15;;;;;;;;;;5054381;28;20104;-77
2022/09/14 13:24:23;;;;;;;2.50;1.00;;;;;;;;;;5054392;28;20091;-77
2022/09/14 13:26:49;;;;;;;3.22;1.08;;;;;;;;;;5054315;28;20389;-77
2022/09/14 13:29:15;;;;;;;1.63;0.90;;;;;;;;;;5054093;28;20082;-76
2022/09/14 13:31:44;;;;;;;3.08;0.90;;;;;;;;;;5054557;28;20035;-77
2022/09/14 13:34:18;;;;;;;2.42;1.00;;;;;;;;;;5054435;28;20022;-77
2022/09/14 13:36:45;;;;;;;1.20;0.90;;;;;;;;;;5053915;28;20060;-77
2022/09/14 13:39:25;;;;;;;2.45;1.48;;;;;;;;;;5054227;28;20048;-77
2022/09/14 13:41:51;;;;;;;2.28;1.30;;;;;;;;;;5054114;28;20161;-77
2022/09/14 13:44:18;;;;;;;3.53;1.30;;;;;;;;;;5054378;28;20048;-77
2022/09/14 13:46:44;;;;;;;1.98;1.08;;;;;;;;;;5053991;28;20079;-77
2022/09/14 13:49:12;;;;;;;2.17;1.25;;;;;;;;;;5053947;28;20021;-77
2022/09/14 13:51:38;;;;;;;2.03;1.00;;;;;;;;;;5036077;28;20082;-75
2022/09/14 13:54:22;;;;;;;1.98;1.30;;;;;;;;;;5053955;28;20095;-75
2022/09/14 13:57:08;;;;;;;3.78;1.25;;;;;;;;;;5053516;28;20075;-77
2022/09/14 13:59:35;;;;;;;7.63;1.30;;;;;;;;;;5053780;28;20061;-76
2022/09/14 14:02:03;;;;;;;2.80;1.10;;;;;;;;;;5053883;28;20028;-76
2022/09/14 14:04:34;;;;;;;2.47;1.10;;;;;;;;;;5053427;28;20070;-76
2022/09/14 14:07:03;;;;;;;3.55;1.10;;;;;;;;;;5053795;28;20116;-76
2022/09/14 14:09:58;;;;;;;2.17;1.13;;;;;;;;;;5053654;28;20017;-78
2022/09/14 14:12:32;;;;;;;1.63;1.10;;;;;;;;;;5036570;28;20037;-77
2022/09/14 14:15:01;;;;;;;5.80;1.20;;;;;;;;;;5053627;28;20488;-77
2022/09/14 14:17:27;;;;;;;2.22;1.23;;;;;;;;;;5053105;28;20021;-76
2022/09/14 14:19:54;;;;;;;3.58;1.20;;;;;;;;;;5035609;28;20036;-77
2022/09/14 14:22:24;;;;;;;2.55;1.40;;;;;;;;;;5035598;28;20025;-77
2022/09/14 14:24:50;;;;;;;4.20;1.25;;;;;;;;;;5053409;28;20029;-76
2022/09/14 14:27:36;;;;;;;2.55;1.30;;;;;;;;;;5053707;28;20473;-76
2022/09/14 14:30:13;;;;;;;5.45;1.52;;;;;;;;;;5035478;28;20033;-76
2022/09/14 14:32:39;;;;;;;2.88;1.45;;;;;;;;;;5053192;28;20025;-77
2022/09/14 14:35:21;;;;;;;3.92;1.20;;;;;;;;;;5035860;28;20545;-76
2022/09/14 14:37:47;;;;;;;3.67;1.30;;;;;;;;;;5052751;28;20041;-76
2022/09/14 14:40:14;;;;;;;4.47;1.40;;;;;;;;;;5053339;28;20448;-78
2022/09/14 14:42:41;;;;;;;3.90;1.30;;;;;;;;;;5053255;28;20072;-77
2022/09/14 14:45:12;;;;;;;1.90;1.20;;;;;;;;;;5052839;28;20029;-77
2022/09/14 14:47:38;;;;;;;;;;;;;;;;;;5053672;28;20029;-77
2022/09/14 14:50:06;;;;;;;2.45;1.30;;;;;;;;;;5036200;28;19978;-76
2022/09/14 14:52:32;;;;;;;3.00;1.20;;;;;;;;;;5036030;28;20029;-77
2022/09/14 14:54:58;;;;;;;1.58;1.10;;;;;;;;;;5053155;28;20025;-77
2022/09/14 14:57:24;;;;;;;2.28;1.20;;;;;;;;;;5053237;28;20041;-77
2022/09/14 14:59:51;;;;;;;2.30;1.10;;;;;;;;;;5052850;28;20059;-76
2022/09/14 15:02:17;;;;;;;3.22;1.10;;;;;;;;;;5053320;28;20017;-76
2022/09/14 15:04:44;;;;;;;2.58;1.08;;;;;;;;;;5053101;28;20427;-77
2022/09/14 15:07:10;;;;;;;1.65;1.05;;;;;;;;;;5052609;28;20032;-77
2022/09/14 15:09:36;;;;;;;2.70;1.13;;;;;;;;;;5053258;28;20051;-77
2022/09/14 15:12:02;;;;;;;2.22;1.00;;;;;;;;;;5052944;28;20031;-77
2022/09/14 15:14:28;;;;;;;1.77;1.42;;;;;;;;;;5052481;28;20040;-77
2022/09/14 15:16:58;;;;;;;1.42;0.82;;;;;;;;;;5052982;28;20021;-77
2022/09/14 15:19:25;;;;;;;1.88;0.85;;;;;;;;;;5052542;28;20108;-77
2022/09/14 15:21:51;;;;;;;1.42;0.77;;;;;;;;;;5052491;28;20025;-77
2022/09/14 15:24:17;;;;;;;1.40;0.82;;;;;;;;;;5053504;28;20032;-77
2022/09/14 15:26:43;;;;;;;0.82;0.77;;;;;;;;;;5056690;28;20017;-77
2022/09/14 15:29:12;;;;;;;1.73;0.93;;;;;;;;;;5056209;28;20474;-77
2022/09/14 15:31:39;;;;;;;2.58;1.00;;;;;;;;;;5056546;28;20488;-78
2022/09/14 15:34:05;;;;;;;3.35;1.00;;;;;;;;;;5038124;28;20035;-79
2022/09/14 15:36:50;;;;;;;1.50;0.80;;;;;;;;;;5056429;28;20399;-78
2022/09/14 15:39:20;;;;;;;2.17;0.88;;;;;;;;;;5056156;28;20428;-78
2022/09/14 15:41:46;;;;;;;1.20;0.80;;;;;;;;;;5038037;28;20435;-78
2022/09/14 15:44:12;;;;;;;2.80;1.23;;;;;;;;;;5056169;28;20500;-79
2022/09/14 15:46:39;;;;;;;2.00;0.98;;;;;;;;;;5056364;28;20033;-78
2022/09/14 15:49:07;;;;;;;2.05;0.90;;;;;;;;;;5055781;28;20037;-78
2022/09/14 15:51:34;;;;;;;1.83;1.00;;;;;;;;;;5056142;28;20028;-78
2022/09/14 15:54:01;;;;;;;1.48;0.85;;;;;;;;;;5056091;28;20096;-79
2022/09/14 15:56:27;;;;;;;3.33;1.20;;;;;;;;;;5055704;28;20029;-78
2022/09/14 15:58:53;;;;;;;4.05;1.50;;;;;;;;;;5055882;28;20033;-78
2022/09/14 16:01:19;;;;;;;4.70;1.08;;;;;;;;;;5056151;28;20021;-78
2022/09/14 16:03:46;;;;;;;1.30;0.90;;;;;;;;;;5055434;28;20088;-77
2022/09/14 16:06:13;;;;;;;2.22;1.05;;;;;;;;;;5055778;28;20045;-78
2022/09/14 16:08:39;;;;;;;2.65;1.00;;;;;;;;;;5037892;28;20029;-78
2022/09/14 16:11:06;;;;;;;3.30;1.05;;;;;;;;;;5055284;28;20040;-78
2022/09/14 16:13:33;;;;;;;2.08;0.90;;;;;;;;;;5055891;28;20047;-78
2022/09/14 16:16:03;;;;;;;2.10;1.00;;;;;;;;;;5055766;28;20393;-78
2022/09/14 16:18:30;;;;;;;3.28;0.95;;;;;;;;;;5055232;28;20485;-79
2022/09/14 16:20:57;;;;;;;1.95;1.05;;;;;;;;;;5055580;28;20096;-77